sensor_id;sensor_type;location;lat;lon;timestamp;P1;durP1;ratioP1;P2;durP2;ratioP2
48665;SDS011;34452;50.796;4.994;2023-02-28T00:00:28;10.30;;;3.95;;
48665;SDS011;34452;50.796;4.994;2023-02-28T00:02:53;10.30;;;4.43;;
48665;SDS011;34452;50.796;4.994;2023-02-28T00:05:20;9.73;;;3.65;;
48665;SDS011;34452;50.796;4.994;2023-02-28T00:07:47;11.13;;;3.85;;
48665;SDS011;34452;50.796;4.994;2023-02-28T00:10:14;18.10;;;4.20;;
48665;SDS011;34452;50.796;4.994;2023-02-28T00:12:46;12.50;;;3.72;;
48665;SDS011;34452;50.796;4.994;2023-02-28T00:15:12;8.50;;;3.80;;
48665;SDS011;34452;50.796;4.994;2023-02-28T00:17:38;8.75;;;3.92;;
48665;SDS011;34452;50.796;4.994;2023-02-28T00:20:04;9.30;;;3.95;;
48665;SDS011;34452;50.796;4.994;2023-02-28T00:22:33;10.65;;;4.00;;
48665;SDS011;34452;50.796;4.994;2023-02-28T00:24:59;13.63;;;4.03;;
48665;SDS011;34452;50.796;4.994;2023-02-28T00:27:25;9.82;;;3.83;;
48665;SDS011;34452;50.796;4.994;2023-02-28T00:29:50;7.70;;;4.07;;
48665;SDS011;34452;50.796;4.994;2023-02-28T00:32:16;20.55;;;4.70;;
48665;SDS011;34452;50.796;4.994;2023-02-28T00:34:43;9.73;;;4.03;;
48665;SDS011;34452;50.796;4.994;2023-02-28T00:37:09;12.07;;;4.10;;
48665;SDS011;34452;50.796;4.994;2023-02-28T00:39:37;8.70;;;4.05;;
48665;SDS011;34452;50.796;4.994;2023-02-28T00:42:04;9.02;;;3.78;;
48665;SDS011;34452;50.796;4.994;2023-02-28T00:44:31;5.72;;;3.92;;
48665;SDS011;34452;50.796;4.994;2023-02-28T00:49:23;10.65;;;4.07;;
48665;SDS011;34452;50.796;4.994;2023-02-28T00:51:50;8.25;;;3.60;;
48665;SDS011;34452;50.796;4.994;2023-02-28T00:54:16;9.27;;;4.15;;
48665;SDS011;34452;50.796;4.994;2023-02-28T00:56:42;11.00;;;4.28;;
48665;SDS011;34452;50.796;4.994;2023-02-28T00:59:07;14.75;;;4.15;;
48665;SDS011;34452;50.796;4.994;2023-02-28T01:01:33;10.80;;;4.25;;
48665;SDS011;34452;50.796;4.994;2023-02-28T01:03:59;9.73;;;4.65;;
48665;SDS011;34452;50.796;4.994;2023-02-28T01:06:25;12.27;;;4.28;;
48665;SDS011;34452;50.796;4.994;2023-02-28T01:08:51;8.50;;;4.18;;
48665;SDS011;34452;50.796;4.994;2023-02-28T01:11:17;6.80;;;3.70;;
48665;SDS011;34452;50.796;4.994;2023-02-28T01:16:09;10.65;;;4.00;;
48665;SDS011;34452;50.796;4.994;2023-02-28T01:18:35;8.55;;;4.18;;
48665;SDS011;34452;50.796;4.994;2023-02-28T01:23:29;8.55;;;4.30;;
48665;SDS011;34452;50.796;4.994;2023-02-28T01:25:54;8.48;;;3.97;;
48665;SDS011;34452;50.796;4.994;2023-02-28T01:28:20;9.32;;;3.53;;
48665;SDS011;34452;50.796;4.994;2023-02-28T01:30:48;10.40;;;4.60;;
48665;SDS011;34452;50.796;4.994;2023-02-28T01:33:14;9.25;;;4.43;;
48665;SDS011;34452;50.796;4.994;2023-02-28T01:35:40;7.28;;;3.83;;
48665;SDS011;34452;50.796;4.994;2023-02-28T01:38:06;22.63;;;4.38;;
48665;SDS011;34452;50.796;4.994;2023-02-28T01:40:32;8.32;;;3.58;;
48665;SDS011;34452;50.796;4.994;2023-02-28T01:42:57;11.43;;;3.90;;
48665;SDS011;34452;50.796;4.994;2023-02-28T01:45:25;6.90;;;3.90;;
48665;SDS011;34452;50.796;4.994;2023-02-28T01:48:10;9.88;;;4.25;;
48665;SDS011;34452;50.796;4.994;2023-02-28T01:50:38;13.07;;;4.68;;
48665;SDS011;34452;50.796;4.994;2023-02-28T01:53:10;9.43;;;4.18;;
48665;SDS011;34452;50.796;4.994;2023-02-28T01:55:39;10.40;;;4.15;;
48665;SDS011;34452;50.796;4.994;2023-02-28T01:58:08;11.77;;;3.88;;
48665;SDS011;34452;50.796;4.994;2023-02-28T02:00:34;11.02;;;4.47;;
48665;SDS011;34452;50.796;4.994;2023-02-28T02:03:01;6.30;;;3.67;;
48665;SDS011;34452;50.796;4.994;2023-02-28T02:05:33;8.63;;;4.25;;
48665;SDS011;34452;50.796;4.994;2023-02-28T02:08:04;9.32;;;4.07;;
48665;SDS011;34452;50.796;4.994;2023-02-28T02:10:34;11.15;;;4.55;;
48665;SDS011;34452;50.796;4.994;2023-02-28T02:13:04;11.48;;;4.50;;
48665;SDS011;34452;50.796;4.994;2023-02-28T02:15:51;6.80;;;4.07;;
48665;SDS011;34452;50.796;4.994;2023-02-28T02:35:24;9.57;;;4.80;;
48665;SDS011;34452;50.796;4.994;2023-02-28T02:38:00;14.77;;;4.88;;
48665;SDS011;34452;50.796;4.994;2023-02-28T02:43:35;7.82;;;3.92;;
48665;SDS011;34452;50.796;4.994;2023-02-28T02:46:09;13.38;;;4.50;;
48665;SDS011;34452;50.796;4.994;2023-02-28T02:48:40;7.18;;;4.28;;
48665;SDS011;34452;50.796;4.994;2023-02-28T02:51:11;6.40;;;4.00;;
48665;SDS011;34452;50.796;4.994;2023-02-28T02:56:43;10.98;;;4.75;;
48665;SDS011;34452;50.796;4.994;2023-02-28T02:59:12;9.43;;;4.65;;
48665;SDS011;34452;50.796;4.994;2023-02-28T03:01:46;10.10;;;4.25;;
48665;SDS011;34452;50.796;4.994;2023-02-28T03:04:18;8.68;;;4.22;;
48665;SDS011;34452;50.796;4.994;2023-02-28T03:06:47;11.70;;;4.63;;
48665;SDS011;34452;50.796;4.994;2023-02-28T03:09:15;12.82;;;4.57;;
48665;SDS011;34452;50.796;4.994;2023-02-28T03:11:40;10.18;;;4.72;;
48665;SDS011;34452;50.796;4.994;2023-02-28T03:19:55;7.22;;;3.47;;
48665;SDS011;34452;50.796;4.994;2023-02-28T03:22:45;10.98;;;4.10;;
48665;SDS011;34452;50.796;4.994;2023-02-28T03:28:00;10.20;;;4.68;;
48665;SDS011;34452;50.796;4.994;2023-02-28T03:30:36;15.25;;;4.78;;
48665;SDS011;34452;50.796;4.994;2023-02-28T03:35:59;11.82;;;4.47;;
48665;SDS011;34452;50.796;4.994;2023-02-28T03:41:33;9.50;;;5.07;;
48665;SDS011;34452;50.796;4.994;2023-02-28T03:44:06;8.93;;;4.32;;
48665;SDS011;34452;50.796;4.994;2023-02-28T03:46:41;12.55;;;5.13;;
48665;SDS011;34452;50.796;4.994;2023-02-28T03:49:16;12.63;;;4.82;;
48665;SDS011;34452;50.796;4.994;2023-02-28T03:51:45;10.85;;;4.82;;
48665;SDS011;34452;50.796;4.994;2023-02-28T03:54:13;8.80;;;4.38;;
48665;SDS011;34452;50.796;4.994;2023-02-28T03:59:54;11.75;;;4.68;;
48665;SDS011;34452;50.796;4.994;2023-02-28T04:02:25;11.73;;;5.03;;
48665;SDS011;34452;50.796;4.994;2023-02-28T04:04:51;9.18;;;4.85;;
48665;SDS011;34452;50.796;4.994;2023-02-28T04:07:17;10.70;;;4.63;;
48665;SDS011;34452;50.796;4.994;2023-02-28T04:09:43;14.07;;;5.57;;
48665;SDS011;34452;50.796;4.994;2023-02-28T04:12:09;13.32;;;5.43;;
48665;SDS011;34452;50.796;4.994;2023-02-28T04:14:34;9.48;;;5.72;;
48665;SDS011;34452;50.796;4.994;2023-02-28T04:17:00;13.85;;;5.78;;
48665;SDS011;34452;50.796;4.994;2023-02-28T04:19:26;10.38;;;5.60;;
48665;SDS011;34452;50.796;4.994;2023-02-28T04:21:52;10.88;;;6.07;;
48665;SDS011;34452;50.796;4.994;2023-02-28T04:24:19;18.88;;;5.75;;
48665;SDS011;34452;50.796;4.994;2023-02-28T04:26:48;22.40;;;6.00;;
48665;SDS011;34452;50.796;4.994;2023-02-28T04:31:55;12.05;;;6.20;;
48665;SDS011;34452;50.796;4.994;2023-02-28T04:34:24;10.85;;;5.13;;
48665;SDS011;34452;50.796;4.994;2023-02-28T04:36:50;10.60;;;5.78;;
48665;SDS011;34452;50.796;4.994;2023-02-28T04:39:19;7.35;;;5.18;;
48665;SDS011;34452;50.796;4.994;2023-02-28T04:41:46;11.85;;;5.53;;
48665;SDS011;34452;50.796;4.994;2023-02-28T04:44:12;10.90;;;5.85;;
48665;SDS011;34452;50.796;4.994;2023-02-28T04:46:38;10.55;;;4.93;;
48665;SDS011;34452;50.796;4.994;2023-02-28T04:49:04;10.93;;;5.30;;
48665;SDS011;34452;50.796;4.994;2023-02-28T04:51:29;12.80;;;5.97;;
48665;SDS011;34452;50.796;4.994;2023-02-28T04:53:55;11.57;;;6.20;;
48665;SDS011;34452;50.796;4.994;2023-02-28T04:56:21;9.13;;;5.45;;
48665;SDS011;34452;50.796;4.994;2023-02-28T04:58:47;19.52;;;6.40;;
48665;SDS011;34452;50.796;4.994;2023-02-28T05:03:56;17.02;;;6.03;;
48665;SDS011;34452;50.796;4.994;2023-02-28T05:06:23;15.75;;;6.30;;
48665;SDS011;34452;50.796;4.994;2023-02-28T05:08:51;10.20;;;5.68;;
48665;SDS011;34452;50.796;4.994;2023-02-28T05:13:58;11.85;;;5.82;;
48665;SDS011;34452;50.796;4.994;2023-02-28T05:16:24;12.77;;;5.63;;
48665;SDS011;34452;50.796;4.994;2023-02-28T05:18:50;11.45;;;6.43;;
48665;SDS011;34452;50.796;4.994;2023-02-28T05:24:04;14.32;;;5.63;;
48665;SDS011;34452;50.796;4.994;2023-02-28T05:26:34;12.25;;;6.28;;
48665;SDS011;34452;50.796;4.994;2023-02-28T05:29:01;14.73;;;6.00;;
48665;SDS011;34452;50.796;4.994;2023-02-28T05:31:27;11.18;;;5.68;;
48665;SDS011;34452;50.796;4.994;2023-02-28T05:33:53;12.18;;;5.72;;
48665;SDS011;34452;50.796;4.994;2023-02-28T05:36:19;17.63;;;6.32;;
48665;SDS011;34452;50.796;4.994;2023-02-28T05:38:47;13.15;;;7.00;;
48665;SDS011;34452;50.796;4.994;2023-02-28T05:41:13;21.52;;;7.53;;
48665;SDS011;34452;50.796;4.994;2023-02-28T05:43:40;16.70;;;6.28;;
48665;SDS011;34452;50.796;4.994;2023-02-28T05:46:06;9.88;;;6.53;;
48665;SDS011;34452;50.796;4.994;2023-02-28T05:48:34;12.45;;;6.15;;
48665;SDS011;34452;50.796;4.994;2023-02-28T05:51:01;14.52;;;6.30;;
48665;SDS011;34452;50.796;4.994;2023-02-28T05:53:27;10.68;;;6.60;;
48665;SDS011;34452;50.796;4.994;2023-02-28T05:55:53;12.75;;;7.10;;
48665;SDS011;34452;50.796;4.994;2023-02-28T05:58:19;12.27;;;6.47;;
48665;SDS011;34452;50.796;4.994;2023-02-28T06:00:45;17.70;;;6.28;;
48665;SDS011;34452;50.796;4.994;2023-02-28T06:03:11;19.13;;;6.60;;
48665;SDS011;34452;50.796;4.994;2023-02-28T06:05:37;15.88;;;6.60;;
48665;SDS011;34452;50.796;4.994;2023-02-28T06:08:03;11.85;;;6.82;;
48665;SDS011;34452;50.796;4.994;2023-02-28T06:10:30;11.95;;;6.03;;
48665;SDS011;34452;50.796;4.994;2023-02-28T06:12:59;23.45;;;6.65;;
48665;SDS011;34452;50.796;4.994;2023-02-28T06:15:25;13.38;;;6.72;;
48665;SDS011;34452;50.796;4.994;2023-02-28T06:17:51;11.43;;;7.15;;
48665;SDS011;34452;50.796;4.994;2023-02-28T06:20:17;15.77;;;7.07;;
48665;SDS011;34452;50.796;4.994;2023-02-28T06:22:43;12.50;;;6.50;;
48665;SDS011;34452;50.796;4.994;2023-02-28T06:25:09;15.65;;;8.45;;
48665;SDS011;34452;50.796;4.994;2023-02-28T06:27:35;14.65;;;6.97;;
48665;SDS011;34452;50.796;4.994;2023-02-28T06:30:01;14.55;;;7.72;;
48665;SDS011;34452;50.796;4.994;2023-02-28T06:32:27;13.63;;;7.57;;
48665;SDS011;34452;50.796;4.994;2023-02-28T06:34:53;14.15;;;8.20;;
48665;SDS011;34452;50.796;4.994;2023-02-28T06:37:18;15.15;;;7.68;;
48665;SDS011;34452;50.796;4.994;2023-02-28T06:39:45;20.35;;;8.10;;
48665;SDS011;34452;50.796;4.994;2023-02-28T06:42:10;21.30;;;7.97;;
48665;SDS011;34452;50.796;4.994;2023-02-28T06:44:36;14.50;;;7.47;;
48665;SDS011;34452;50.796;4.994;2023-02-28T06:47:04;15.48;;;7.15;;
48665;SDS011;34452;50.796;4.994;2023-02-28T06:49:31;14.88;;;7.57;;
48665;SDS011;34452;50.796;4.994;2023-02-28T06:51:58;12.27;;;7.28;;
48665;SDS011;34452;50.796;4.994;2023-02-28T06:54:24;15.15;;;6.97;;
48665;SDS011;34452;50.796;4.994;2023-02-28T06:56:50;21.88;;;7.70;;
48665;SDS011;34452;50.796;4.994;2023-02-28T06:59:16;15.57;;;7.30;;
48665;SDS011;34452;50.796;4.994;2023-02-28T07:01:42;15.52;;;6.97;;
48665;SDS011;34452;50.796;4.994;2023-02-28T07:04:08;16.55;;;7.82;;
48665;SDS011;34452;50.796;4.994;2023-02-28T07:06:33;15.55;;;7.97;;
48665;SDS011;34452;50.796;4.994;2023-02-28T07:08:59;11.27;;;6.85;;
48665;SDS011;34452;50.796;4.994;2023-02-28T07:11:26;11.77;;;6.90;;
48665;SDS011;34452;50.796;4.994;2023-02-28T07:13:53;12.35;;;6.43;;
48665;SDS011;34452;50.796;4.994;2023-02-28T07:16:20;12.73;;;6.65;;
48665;SDS011;34452;50.796;4.994;2023-02-28T07:18:47;12.90;;;6.43;;
48665;SDS011;34452;50.796;4.994;2023-02-28T07:21:13;11.50;;;6.47;;
48665;SDS011;34452;50.796;4.994;2023-02-28T07:23:39;13.32;;;6.32;;
48665;SDS011;34452;50.796;4.994;2023-02-28T07:26:07;13.10;;;6.00;;
48665;SDS011;34452;50.796;4.994;2023-02-28T07:28:38;18.85;;;6.68;;
48665;SDS011;34452;50.796;4.994;2023-02-28T07:31:04;10.80;;;5.65;;
48665;SDS011;34452;50.796;4.994;2023-02-28T07:33:31;9.15;;;5.55;;
48665;SDS011;34452;50.796;4.994;2023-02-28T07:38:44;17.10;;;6.13;;
48665;SDS011;34452;50.796;4.994;2023-02-28T07:41:14;10.75;;;5.72;;
48665;SDS011;34452;50.796;4.994;2023-02-28T07:43:41;14.95;;;5.47;;
48665;SDS011;34452;50.796;4.994;2023-02-28T07:46:08;18.17;;;5.88;;
48665;SDS011;34452;50.796;4.994;2023-02-28T07:48:35;28.30;;;6.70;;
48665;SDS011;34452;50.796;4.994;2023-02-28T07:51:01;12.95;;;6.20;;
48665;SDS011;34452;50.796;4.994;2023-02-28T07:53:28;12.30;;;5.50;;
48665;SDS011;34452;50.796;4.994;2023-02-28T07:55:55;9.18;;;5.30;;
48665;SDS011;34452;50.796;4.994;2023-02-28T07:58:21;9.15;;;5.03;;
48665;SDS011;34452;50.796;4.994;2023-02-28T08:00:47;8.68;;;5.07;;
48665;SDS011;34452;50.796;4.994;2023-02-28T08:03:13;12.15;;;4.88;;
48665;SDS011;34452;50.796;4.994;2023-02-28T08:05:39;8.80;;;5.45;;
48665;SDS011;34452;50.796;4.994;2023-02-28T08:08:05;10.18;;;5.68;;
48665;SDS011;34452;50.796;4.994;2023-02-28T08:10:32;16.48;;;5.00;;
48665;SDS011;34452;50.796;4.994;2023-02-28T08:12:57;9.07;;;5.35;;
48665;SDS011;34452;50.796;4.994;2023-02-28T08:15:23;7.50;;;4.38;;
48665;SDS011;34452;50.796;4.994;2023-02-28T08:17:49;13.43;;;5.55;;
48665;SDS011;34452;50.796;4.994;2023-02-28T08:20:15;11.50;;;5.60;;
48665;SDS011;34452;50.796;4.994;2023-02-28T08:22:40;10.45;;;4.97;;
48665;SDS011;34452;50.796;4.994;2023-02-28T08:25:06;11.40;;;4.93;;
48665;SDS011;34452;50.796;4.994;2023-02-28T08:29:58;8.65;;;5.07;;
48665;SDS011;34452;50.796;4.994;2023-02-28T08:32:24;8.15;;;4.55;;
48665;SDS011;34452;50.796;4.994;2023-02-28T08:34:50;7.47;;;4.82;;
48665;SDS011;34452;50.796;4.994;2023-02-28T08:37:16;6.88;;;4.65;;
48665;SDS011;34452;50.796;4.994;2023-02-28T08:39:42;10.38;;;4.85;;
48665;SDS011;34452;50.796;4.994;2023-02-28T08:42:07;8.73;;;4.30;;
48665;SDS011;34452;50.796;4.994;2023-02-28T08:44:33;15.15;;;4.53;;
48665;SDS011;34452;50.796;4.994;2023-02-28T08:46:59;7.40;;;4.15;;
48665;SDS011;34452;50.796;4.994;2023-02-28T08:49:25;7.80;;;3.80;;
48665;SDS011;34452;50.796;4.994;2023-02-28T08:51:50;7.75;;;3.88;;
48665;SDS011;34452;50.796;4.994;2023-02-28T08:54:16;8.13;;;3.80;;
48665;SDS011;34452;50.796;4.994;2023-02-28T08:56:44;9.52;;;4.15;;
48665;SDS011;34452;50.796;4.994;2023-02-28T08:59:12;7.68;;;3.67;;
48665;SDS011;34452;50.796;4.994;2023-02-28T09:01:38;7.13;;;4.28;;
48665;SDS011;34452;50.796;4.994;2023-02-28T09:04:04;17.25;;;4.57;;
48665;SDS011;34452;50.796;4.994;2023-02-28T09:06:32;13.50;;;4.35;;
48665;SDS011;34452;50.796;4.994;2023-02-28T09:08:58;9.15;;;4.13;;
48665;SDS011;34452;50.796;4.994;2023-02-28T09:11:24;8.30;;;4.05;;
48665;SDS011;34452;50.796;4.994;2023-02-28T09:13:50;7.88;;;3.78;;
48665;SDS011;34452;50.796;4.994;2023-02-28T09:16:16;8.10;;;3.85;;
48665;SDS011;34452;50.796;4.994;2023-02-28T09:18:42;10.88;;;3.30;;
48665;SDS011;34452;50.796;4.994;2023-02-28T09:21:10;8.45;;;3.20;;
48665;SDS011;34452;50.796;4.994;2023-02-28T09:23:39;8.80;;;4.05;;
48665;SDS011;34452;50.796;4.994;2023-02-28T09:26:05;8.98;;;3.33;;
48665;SDS011;34452;50.796;4.994;2023-02-28T09:28:32;9.38;;;3.65;;
48665;SDS011;34452;50.796;4.994;2023-02-28T09:30:58;9.07;;;3.88;;
48665;SDS011;34452;50.796;4.994;2023-02-28T09:33:24;6.20;;;3.45;;
48665;SDS011;34452;50.796;4.994;2023-02-28T09:35:51;12.52;;;4.00;;
48665;SDS011;34452;50.796;4.994;2023-02-28T09:38:23;30.17;;;4.05;;
48665;SDS011;34452;50.796;4.994;2023-02-28T09:43:17;7.43;;;3.10;;
48665;SDS011;34452;50.796;4.994;2023-02-28T09:45:48;8.50;;;3.15;;
48665;SDS011;34452;50.796;4.994;2023-02-28T09:48:32;9.75;;;3.65;;
48665;SDS011;34452;50.796;4.994;2023-02-28T09:51:03;7.03;;;2.95;;
48665;SDS011;34452;50.796;4.994;2023-02-28T09:53:35;7.05;;;3.72;;
48665;SDS011;34452;50.796;4.994;2023-02-28T09:56:06;6.50;;;3.50;;
48665;SDS011;34452;50.796;4.994;2023-02-28T10:03:51;7.93;;;2.88;;
48665;SDS011;34452;50.796;4.994;2023-02-28T10:06:28;8.55;;;3.10;;
48665;SDS011;34452;50.796;4.994;2023-02-28T10:11:45;7.18;;;2.20;;
48665;SDS011;34452;50.796;4.994;2023-02-28T10:16:41;4.05;;;2.10;;
48665;SDS011;34452;50.796;4.994;2023-02-28T10:19:15;4.20;;;1.85;;
48665;SDS011;34452;50.796;4.994;2023-02-28T10:21:47;9.80;;;2.65;;
48665;SDS011;34452;50.796;4.994;2023-02-28T10:24:36;7.10;;;2.10;;
48665;SDS011;34452;50.796;4.994;2023-02-28T10:32:35;3.40;;;1.70;;
48665;SDS011;34452;50.796;4.994;2023-02-28T10:37:40;5.15;;;2.00;;
48665;SDS011;34452;50.796;4.994;2023-02-28T10:42:57;6.65;;;1.80;;
48665;SDS011;34452;50.796;4.994;2023-02-28T10:45:51;2.75;;;1.77;;
48665;SDS011;34452;50.796;4.994;2023-02-28T11:06:59;3.03;;;1.73;;
48665;SDS011;34452;50.796;4.994;2023-02-28T11:09:28;4.35;;;1.98;;
48665;SDS011;34452;50.796;4.994;2023-02-28T11:11:58;5.03;;;2.15;;
48665;SDS011;34452;50.796;4.994;2023-02-28T11:14:27;2.83;;;1.75;;
48665;SDS011;34452;50.796;4.994;2023-02-28T11:16:55;5.78;;;2.20;;
48665;SDS011;34452;50.796;4.994;2023-02-28T11:19:28;5.20;;;2.10;;
48665;SDS011;34452;50.796;4.994;2023-02-28T11:22:01;4.35;;;1.95;;
48665;SDS011;34452;50.796;4.994;2023-02-28T11:24:30;2.47;;;1.73;;
48665;SDS011;34452;50.796;4.994;2023-02-28T11:27:01;2.85;;;1.60;;
48665;SDS011;34452;50.796;4.994;2023-02-28T11:29:28;1.85;;;1.52;;
48665;SDS011;34452;50.796;4.994;2023-02-28T11:34:33;10.27;;;1.92;;
48665;SDS011;34452;50.796;4.994;2023-02-28T11:37:00;2.47;;;1.55;;
48665;SDS011;34452;50.796;4.994;2023-02-28T11:39:30;2.85;;;1.58;;
48665;SDS011;34452;50.796;4.994;2023-02-28T11:45:03;3.80;;;1.48;;
48665;SDS011;34452;50.796;4.994;2023-02-28T11:50:42;4.88;;;1.50;;
48665;SDS011;34452;50.796;4.994;2023-02-28T11:53:27;3.20;;;1.60;;
48665;SDS011;34452;50.796;4.994;2023-02-28T11:56:03;5.22;;;1.30;;
48665;SDS011;34452;50.796;4.994;2023-02-28T12:01:25;7.53;;;1.65;;
48665;SDS011;34452;50.796;4.994;2023-02-28T12:03:58;1.90;;;1.33;;
48665;SDS011;34452;50.796;4.994;2023-02-28T12:06:52;4.57;;;1.85;;
48665;SDS011;34452;50.796;4.994;2023-02-28T12:15:16;2.35;;;1.50;;
48665;SDS011;34452;50.796;4.994;2023-02-28T12:26:23;6.53;;;1.60;;
48665;SDS011;34452;50.796;4.994;2023-02-28T12:29:19;8.57;;;1.25;;
48665;SDS011;34452;50.796;4.994;2023-02-28T12:31:52;4.65;;;1.27;;
48665;SDS011;34452;50.796;4.994;2023-02-28T12:34:42;6.45;;;2.05;;
48665;SDS011;34452;50.796;4.994;2023-02-28T12:37:15;5.32;;;1.73;;
48665;SDS011;34452;50.796;4.994;2023-02-28T12:39:47;4.45;;;1.50;;
48665;SDS011;34452;50.796;4.994;2023-02-28T12:42:30;3.10;;;1.73;;
48665;SDS011;34452;50.796;4.994;2023-02-28T12:45:00;2.85;;;1.55;;
48665;SDS011;34452;50.796;4.994;2023-02-28T12:47:30;3.70;;;1.50;;
48665;SDS011;34452;50.796;4.994;2023-02-28T12:49:56;5.63;;;1.80;;
48665;SDS011;34452;50.796;4.994;2023-02-28T12:52:30;3.72;;;1.88;;
48665;SDS011;34452;50.796;4.994;2023-02-28T12:55:11;2.83;;;1.52;;
48665;SDS011;34452;50.796;4.994;2023-02-28T13:00:16;5.53;;;1.55;;
48665;SDS011;34452;50.796;4.994;2023-02-28T13:09:01;2.40;;;1.30;;
48665;SDS011;34452;50.796;4.994;2023-02-28T13:14:22;7.97;;;1.75;;
48665;SDS011;34452;50.796;4.994;2023-02-28T13:16:54;4.93;;;1.90;;
48665;SDS011;34452;50.796;4.994;2023-02-28T13:19:25;2.47;;;1.55;;
48665;SDS011;34452;50.796;4.994;2023-02-28T13:21:53;9.50;;;1.85;;
48665;SDS011;34452;50.796;4.994;2023-02-28T13:29:31;7.10;;;2.00;;
48665;SDS011;34452;50.796;4.994;2023-02-28T13:42:49;4.38;;;2.10;;
48665;SDS011;34452;50.796;4.994;2023-02-28T13:45:20;5.80;;;1.80;;
48665;SDS011;34452;50.796;4.994;2023-02-28T13:50:44;3.28;;;1.90;;
48665;SDS011;34452;50.796;4.994;2023-02-28T13:55:42;7.22;;;1.98;;
48665;SDS011;34452;50.796;4.994;2023-02-28T14:06:38;2.80;;;1.77;;
48665;SDS011;34452;50.796;4.994;2023-02-28T14:11:55;4.80;;;2.13;;
48665;SDS011;34452;50.796;4.994;2023-02-28T14:17:12;3.13;;;2.10;;
48665;SDS011;34452;50.796;4.994;2023-02-28T14:19:41;3.40;;;1.90;;
48665;SDS011;34452;50.796;4.994;2023-02-28T14:28:09;4.30;;;1.77;;
48665;SDS011;34452;50.796;4.994;2023-02-28T14:36:49;5.72;;;2.10;;
48665;SDS011;34452;50.796;4.994;2023-02-28T14:39:19;5.43;;;2.33;;
48665;SDS011;34452;50.796;4.994;2023-02-28T14:41:48;3.42;;;2.10;;
48665;SDS011;34452;50.796;4.994;2023-02-28T14:47:01;3.78;;;2.05;;
48665;SDS011;34452;50.796;4.994;2023-02-28T14:49:32;4.45;;;1.88;;
48665;SDS011;34452;50.796;4.994;2023-02-28T14:52:05;3.38;;;1.73;;
48665;SDS011;34452;50.796;4.994;2023-02-28T14:54:37;2.90;;;2.08;;
48665;SDS011;34452;50.796;4.994;2023-02-28T14:57:04;3.50;;;2.03;;
48665;SDS011;34452;50.796;4.994;2023-02-28T14:59:31;9.68;;;2.17;;
48665;SDS011;34452;50.796;4.994;2023-02-28T15:07:40;3.30;;;1.92;;
48665;SDS011;34452;50.796;4.994;2023-02-28T15:10:07;2.72;;;2.05;;
48665;SDS011;34452;50.796;4.994;2023-02-28T15:12:48;4.10;;;2.10;;
48665;SDS011;34452;50.796;4.994;2023-02-28T15:20:58;3.95;;;2.15;;
48665;SDS011;34452;50.796;4.994;2023-02-28T15:23:27;3.90;;;2.50;;
48665;SDS011;34452;50.796;4.994;2023-02-28T15:25:54;2.30;;;1.92;;
48665;SDS011;34452;50.796;4.994;2023-02-28T15:28:21;3.80;;;2.00;;
48665;SDS011;34452;50.796;4.994;2023-02-28T15:31:00;5.88;;;2.00;;
48665;SDS011;34452;50.796;4.994;2023-02-28T15:33:28;3.25;;;1.92;;
48665;SDS011;34452;50.796;4.994;2023-02-28T15:38:45;5.70;;;2.20;;
48665;SDS011;34452;50.796;4.994;2023-02-28T15:44:14;3.25;;;2.08;;
48665;SDS011;34452;50.796;4.994;2023-02-28T15:46:58;6.35;;;2.17;;
48665;SDS011;34452;50.796;4.994;2023-02-28T15:49:28;4.55;;;2.00;;
48665;SDS011;34452;50.796;4.994;2023-02-28T15:51:57;2.83;;;1.90;;
48665;SDS011;34452;50.796;4.994;2023-02-28T15:54:27;5.18;;;2.33;;
48665;SDS011;34452;50.796;4.994;2023-02-28T15:56:57;4.60;;;2.00;;
48665;SDS011;34452;50.796;4.994;2023-02-28T15:59:33;5.30;;;2.10;;
48665;SDS011;34452;50.796;4.994;2023-02-28T16:02:03;4.68;;;2.13;;
48665;SDS011;34452;50.796;4.994;2023-02-28T16:04:59;3.25;;;2.17;;
48665;SDS011;34452;50.796;4.994;2023-02-28T16:07:39;4.13;;;2.03;;
48665;SDS011;34452;50.796;4.994;2023-02-28T16:10:07;2.67;;;1.73;;
48665;SDS011;34452;50.796;4.994;2023-02-28T16:12:35;7.13;;;2.30;;
48665;SDS011;34452;50.796;4.994;2023-02-28T16:15:06;3.70;;;1.92;;
48665;SDS011;34452;50.796;4.994;2023-02-28T16:17:42;3.88;;;1.60;;
48665;SDS011;34452;50.796;4.994;2023-02-28T16:20:19;8.57;;;2.15;;
48665;SDS011;34452;50.796;4.994;2023-02-28T16:22:47;4.95;;;2.20;;
48665;SDS011;34452;50.796;4.994;2023-02-28T16:25:13;4.22;;;2.35;;
48665;SDS011;34452;50.796;4.994;2023-02-28T16:27:40;5.30;;;2.20;;
48665;SDS011;34452;50.796;4.994;2023-02-28T16:30:09;4.05;;;2.50;;
48665;SDS011;34452;50.796;4.994;2023-02-28T16:32:42;4.50;;;2.38;;
48665;SDS011;34452;50.796;4.994;2023-02-28T16:35:09;3.15;;;2.08;;
48665;SDS011;34452;50.796;4.994;2023-02-28T16:37:36;6.53;;;2.25;;
48665;SDS011;34452;50.796;4.994;2023-02-28T16:40:02;6.22;;;2.53;;
48665;SDS011;34452;50.796;4.994;2023-02-28T16:42:28;3.38;;;2.17;;
48665;SDS011;34452;50.796;4.994;2023-02-28T16:44:56;7.35;;;2.40;;
48665;SDS011;34452;50.796;4.994;2023-02-28T16:47:23;6.50;;;2.40;;
48665;SDS011;34452;50.796;4.994;2023-02-28T16:49:51;2.85;;;2.33;;
48665;SDS011;34452;50.796;4.994;2023-02-28T16:52:17;8.43;;;2.35;;
48665;SDS011;34452;50.796;4.994;2023-02-28T16:54:43;7.55;;;2.97;;
48665;SDS011;34452;50.796;4.994;2023-02-28T16:59:53;7.45;;;2.58;;
48665;SDS011;34452;50.796;4.994;2023-02-28T17:02:19;2.58;;;1.98;;
48665;SDS011;34452;50.796;4.994;2023-02-28T17:04:45;7.72;;;2.78;;
48665;SDS011;34452;50.796;4.994;2023-02-28T17:07:12;5.03;;;2.75;;
48665;SDS011;34452;50.796;4.994;2023-02-28T17:09:39;8.68;;;2.58;;
48665;SDS011;34452;50.796;4.994;2023-02-28T17:12:05;4.38;;;2.80;;
48665;SDS011;34452;50.796;4.994;2023-02-28T17:16:57;4.55;;;2.80;;
48665;SDS011;34452;50.796;4.994;2023-02-28T17:19:23;7.57;;;2.50;;
48665;SDS011;34452;50.796;4.994;2023-02-28T17:21:49;6.25;;;3.00;;
48665;SDS011;34452;50.796;4.994;2023-02-28T17:24:15;5.85;;;2.67;;
48665;SDS011;34452;50.796;4.994;2023-02-28T17:26:41;14.10;;;3.03;;
48665;SDS011;34452;50.796;4.994;2023-02-28T17:31:50;18.17;;;3.30;;
48665;SDS011;34452;50.796;4.994;2023-02-28T17:34:17;5.82;;;2.92;;
48665;SDS011;34452;50.796;4.994;2023-02-28T17:36:45;5.68;;;3.00;;
48665;SDS011;34452;50.796;4.994;2023-02-28T17:39:12;8.23;;;3.70;;
48665;SDS011;34452;50.796;4.994;2023-02-28T17:41:39;7.70;;;3.40;;
48665;SDS011;34452;50.796;4.994;2023-02-28T17:44:07;18.27;;;3.95;;
48665;SDS011;34452;50.796;4.994;2023-02-28T17:46:33;5.03;;;2.90;;
48665;SDS011;34452;50.796;4.994;2023-02-28T17:48:59;4.93;;;2.85;;
48665;SDS011;34452;50.796;4.994;2023-02-28T17:51:25;7.63;;;3.00;;
48665;SDS011;34452;50.796;4.994;2023-02-28T17:53:51;5.07;;;2.95;;
48665;SDS011;34452;50.796;4.994;2023-02-28T17:56:19;4.03;;;2.50;;
48665;SDS011;34452;50.796;4.994;2023-02-28T17:58:48;6.90;;;3.17;;
48665;SDS011;34452;50.796;4.994;2023-02-28T18:01:15;6.35;;;3.67;;
48665;SDS011;34452;50.796;4.994;2023-02-28T18:06:08;6.68;;;3.20;;
48665;SDS011;34452;50.796;4.994;2023-02-28T18:08:39;7.22;;;3.58;;
48665;SDS011;34452;50.796;4.994;2023-02-28T18:11:05;9.52;;;3.20;;
48665;SDS011;34452;50.796;4.994;2023-02-28T18:13:30;7.80;;;3.63;;
48665;SDS011;34452;50.796;4.994;2023-02-28T18:15:56;8.23;;;4.00;;
48665;SDS011;34452;50.796;4.994;2023-02-28T18:18:22;5.10;;;3.43;;
48665;SDS011;34452;50.796;4.994;2023-02-28T18:20:47;5.07;;;3.10;;
48665;SDS011;34452;50.796;4.994;2023-02-28T18:23:14;8.75;;;3.13;;
48665;SDS011;34452;50.796;4.994;2023-02-28T18:25:42;7.82;;;3.20;;
48665;SDS011;34452;50.796;4.994;2023-02-28T18:28:08;4.30;;;3.22;;
48665;SDS011;34452;50.796;4.994;2023-02-28T18:30:34;10.00;;;3.70;;
48665;SDS011;34452;50.796;4.994;2023-02-28T18:33:02;6.03;;;3.00;;